sensor_id;sensor_type;location;lat;lon;timestamp;P1;durP1;ratioP1;P2;durP2;ratioP2
6667;SDS011;3370;47.712;9.082;2022-11-20T00:01:22;5.50;;;5.00;;
6667;SDS011;3370;47.712;9.082;2022-11-20T00:03:51;11.23;;;6.20;;
6667;SDS011;3370;47.712;9.082;2022-11-20T00:06:19;6.03;;;5.30;;
6667;SDS011;3370;47.712;9.082;2022-11-20T00:08:46;5.50;;;5.00;;
6667;SDS011;3370;47.712;9.082;2022-11-20T00:11:14;5.70;;;5.00;;
6667;SDS011;3370;47.712;9.082;2022-11-20T00:13:47;6.87;;;5.60;;
6667;SDS011;3370;47.712;9.082;2022-11-20T00:16:17;8.33;;;6.83;;
6667;SDS011;3370;47.712;9.082;2022-11-20T00:18:45;5.90;;;5.33;;
6667;SDS011;3370;47.712;9.082;2022-11-20T00:23:39;6.77;;;5.93;;
6667;SDS011;3370;47.712;9.082;2022-11-20T00:26:07;8.47;;;5.60;;
6667;SDS011;3370;47.712;9.082;2022-11-20T00:28:41;7.60;;;6.00;;
6667;SDS011;3370;47.712;9.082;2022-11-20T00:31:11;7.30;;;5.13;;
6667;SDS011;3370;47.712;9.082;2022-11-20T00:33:40;6.20;;;5.07;;
6667;SDS011;3370;47.712;9.082;2022-11-20T00:36:11;7.17;;;5.47;;
6667;SDS011;3370;47.712;9.082;2022-11-20T00:38:52;5.93;;;3.80;;
6667;SDS011;3370;47.712;9.082;2022-11-20T00:41:20;4.40;;;4.10;;
6667;SDS011;3370;47.712;9.082;2022-11-20T00:43:46;6.77;;;4.00;;
6667;SDS011;3370;47.712;9.082;2022-11-20T00:46:13;6.43;;;4.23;;
6667;SDS011;3370;47.712;9.082;2022-11-20T00:48:42;6.40;;;4.10;;
6667;SDS011;3370;47.712;9.082;2022-11-20T00:51:10;6.13;;;3.90;;
6667;SDS011;3370;47.712;9.082;2022-11-20T00:53:39;10.70;;;5.20;;
6667;SDS011;3370;47.712;9.082;2022-11-20T00:56:06;4.00;;;3.70;;
6667;SDS011;3370;47.712;9.082;2022-11-20T00:58:36;4.80;;;4.30;;
6667;SDS011;3370;47.712;9.082;2022-11-20T01:01:08;5.80;;;4.20;;
6667;SDS011;3370;47.712;9.082;2022-11-20T01:03:39;5.50;;;4.50;;
6667;SDS011;3370;47.712;9.082;2022-11-20T01:06:13;4.00;;;3.70;;
6667;SDS011;3370;47.712;9.082;2022-11-20T01:08:45;4.70;;;4.30;;
6667;SDS011;3370;47.712;9.082;2022-11-20T01:11:14;4.10;;;3.80;;
6667;SDS011;3370;47.712;9.082;2022-11-20T01:13:45;5.63;;;4.40;;
6667;SDS011;3370;47.712;9.082;2022-11-20T01:16:16;4.10;;;3.80;;
6667;SDS011;3370;47.712;9.082;2022-11-20T01:18:45;4.13;;;3.73;;
6667;SDS011;3370;47.712;9.082;2022-11-20T01:21:18;4.10;;;3.77;;
6667;SDS011;3370;47.712;9.082;2022-11-20T01:23:50;4.27;;;3.87;;
6667;SDS011;3370;47.712;9.082;2022-11-20T01:26:18;3.97;;;3.67;;
6667;SDS011;3370;47.712;9.082;2022-11-20T01:28:48;4.83;;;4.03;;
6667;SDS011;3370;47.712;9.082;2022-11-20T01:34:00;5.80;;;4.20;;
6667;SDS011;3370;47.712;9.082;2022-11-20T01:36:34;6.10;;;4.83;;
6667;SDS011;3370;47.712;9.082;2022-11-20T01:39:06;7.77;;;4.27;;
6667;SDS011;3370;47.712;9.082;2022-11-20T01:41:40;5.07;;;4.67;;
6667;SDS011;3370;47.712;9.082;2022-11-20T01:50:14;6.17;;;4.90;;
6667;SDS011;3370;47.712;9.082;2022-11-20T01:53:06;5.43;;;4.80;;
6667;SDS011;3370;47.712;9.082;2022-11-20T01:55:38;5.50;;;5.00;;
6667;SDS011;3370;47.712;9.082;2022-11-20T01:58:12;5.53;;;5.07;;
6667;SDS011;3370;47.712;9.082;2022-11-20T02:00:40;6.53;;;4.60;;
6667;SDS011;3370;47.712;9.082;2022-11-20T02:03:07;5.70;;;4.60;;
6667;SDS011;3370;47.712;9.082;2022-11-20T02:05:46;7.83;;;5.67;;
6667;SDS011;3370;47.712;9.082;2022-11-20T02:08:20;5.67;;;5.17;;
6667;SDS011;3370;47.712;9.082;2022-11-20T02:10:48;9.90;;;4.67;;
6667;SDS011;3370;47.712;9.082;2022-11-20T02:13:13;5.30;;;4.80;;
6667;SDS011;3370;47.712;9.082;2022-11-20T02:15:59;5.00;;;4.53;;
6667;SDS011;3370;47.712;9.082;2022-11-20T02:18:26;6.23;;;4.87;;
6667;SDS011;3370;47.712;9.082;2022-11-20T02:21:05;9.53;;;4.80;;
6667;SDS011;3370;47.712;9.082;2022-11-20T02:23:58;6.70;;;4.97;;
6667;SDS011;3370;47.712;9.082;2022-11-20T02:26:30;5.10;;;4.70;;
6667;SDS011;3370;47.712;9.082;2022-11-20T02:29:09;5.10;;;4.60;;
6667;SDS011;3370;47.712;9.082;2022-11-20T02:31:40;6.50;;;4.80;;
6667;SDS011;3370;47.712;9.082;2022-11-20T02:34:08;4.80;;;4.40;;
6667;SDS011;3370;47.712;9.082;2022-11-20T02:36:34;8.60;;;6.00;;
6667;SDS011;3370;47.712;9.082;2022-11-20T02:39:03;5.13;;;4.70;;
6667;SDS011;3370;47.712;9.082;2022-11-20T02:41:33;5.70;;;5.03;;
6667;SDS011;3370;47.712;9.082;2022-11-20T02:44:02;6.40;;;5.13;;
6667;SDS011;3370;47.712;9.082;2022-11-20T02:46:28;4.97;;;4.50;;
6667;SDS011;3370;47.712;9.082;2022-11-20T02:48:55;7.57;;;5.50;;
6667;SDS011;3370;47.712;9.082;2022-11-20T02:51:21;6.10;;;5.50;;
6667;SDS011;3370;47.712;9.082;2022-11-20T02:53:48;6.07;;;4.83;;
6667;SDS011;3370;47.712;9.082;2022-11-20T02:56:14;5.37;;;4.30;;
6667;SDS011;3370;47.712;9.082;2022-11-20T02:58:40;5.03;;;4.53;;
6667;SDS011;3370;47.712;9.082;2022-11-20T03:01:06;7.27;;;4.70;;
6667;SDS011;3370;47.712;9.082;2022-11-20T03:03:32;4.80;;;4.40;;
6667;SDS011;3370;47.712;9.082;2022-11-20T03:06:00;3.80;;;3.50;;
6667;SDS011;3370;47.712;9.082;2022-11-20T03:08:26;7.30;;;4.90;;
6667;SDS011;3370;47.712;9.082;2022-11-20T03:10:53;8.70;;;5.03;;
6667;SDS011;3370;47.712;9.082;2022-11-20T03:13:19;4.83;;;4.43;;
6667;SDS011;3370;47.712;9.082;2022-11-20T03:15:44;7.70;;;4.70;;
6667;SDS011;3370;47.712;9.082;2022-11-20T03:18:10;5.30;;;4.90;;
6667;SDS011;3370;47.712;9.082;2022-11-20T03:20:38;5.30;;;4.80;;
6667;SDS011;3370;47.712;9.082;2022-11-20T03:23:04;5.80;;;5.20;;
6667;SDS011;3370;47.712;9.082;2022-11-20T03:25:30;5.77;;;5.23;;
6667;SDS011;3370;47.712;9.082;2022-11-20T03:27:56;5.97;;;5.27;;
6667;SDS011;3370;47.712;9.082;2022-11-20T03:30:22;8.47;;;6.53;;
6667;SDS011;3370;47.712;9.082;2022-11-20T03:32:48;7.77;;;5.30;;
6667;SDS011;3370;47.712;9.082;2022-11-20T03:35:13;5.53;;;5.00;;
6667;SDS011;3370;47.712;9.082;2022-11-20T03:37:39;8.10;;;5.60;;
6667;SDS011;3370;47.712;9.082;2022-11-20T03:40:05;5.73;;;5.13;;
6667;SDS011;3370;47.712;9.082;2022-11-20T03:42:32;5.30;;;4.80;;
6667;SDS011;3370;47.712;9.082;2022-11-20T03:45:10;6.00;;;5.20;;
6667;SDS011;3370;47.712;9.082;2022-11-20T03:47:37;4.90;;;4.50;;
6667;SDS011;3370;47.712;9.082;2022-11-20T03:50:03;9.40;;;5.80;;
6667;SDS011;3370;47.712;9.082;2022-11-20T03:52:30;11.13;;;5.40;;
6667;SDS011;3370;47.712;9.082;2022-11-20T03:54:55;7.37;;;5.67;;
6667;SDS011;3370;47.712;9.082;2022-11-20T03:57:21;7.93;;;6.10;;
6667;SDS011;3370;47.712;9.082;2022-11-20T03:59:47;5.43;;;4.93;;
6667;SDS011;3370;47.712;9.082;2022-11-20T04:02:13;6.30;;;5.43;;
6667;SDS011;3370;47.712;9.082;2022-11-20T04:04:39;6.07;;;5.10;;
6667;SDS011;3370;47.712;9.082;2022-11-20T04:07:05;5.83;;;5.20;;
6667;SDS011;3370;47.712;9.082;2022-11-20T04:09:31;8.07;;;4.87;;
6667;SDS011;3370;47.712;9.082;2022-11-20T04:11:57;6.23;;;4.83;;
6667;SDS011;3370;47.712;9.082;2022-11-20T04:14:23;6.40;;;3.93;;
6667;SDS011;3370;47.712;9.082;2022-11-20T04:16:48;5.40;;;4.90;;
6667;SDS011;3370;47.712;9.082;2022-11-20T04:19:15;4.33;;;3.93;;
6667;SDS011;3370;47.712;9.082;2022-11-20T04:21:42;4.27;;;3.93;;
6667;SDS011;3370;47.712;9.082;2022-11-20T04:24:08;4.60;;;4.20;;
6667;SDS011;3370;47.712;9.082;2022-11-20T04:26:38;4.60;;;4.20;;
6667;SDS011;3370;47.712;9.082;2022-11-20T04:29:04;4.60;;;4.13;;
6667;SDS011;3370;47.712;9.082;2022-11-20T04:31:32;5.20;;;4.20;;
6667;SDS011;3370;47.712;9.082;2022-11-20T04:34:00;5.03;;;4.20;;
6667;SDS011;3370;47.712;9.082;2022-11-20T04:36:32;5.10;;;4.17;;
6667;SDS011;3370;47.712;9.082;2022-11-20T04:38:59;4.30;;;3.97;;
6667;SDS011;3370;47.712;9.082;2022-11-20T04:41:29;10.03;;;4.50;;
6667;SDS011;3370;47.712;9.082;2022-11-20T04:43:58;3.77;;;3.47;;
6667;SDS011;3370;47.712;9.082;2022-11-20T04:46:29;4.70;;;4.20;;
6667;SDS011;3370;47.712;9.082;2022-11-20T04:48:58;3.47;;;3.27;;
6667;SDS011;3370;47.712;9.082;2022-11-20T04:51:24;3.60;;;3.30;;
6667;SDS011;3370;47.712;9.082;2022-11-20T04:53:51;4.20;;;2.70;;
6667;SDS011;3370;47.712;9.082;2022-11-20T04:56:17;3.20;;;2.93;;
6667;SDS011;3370;47.712;9.082;2022-11-20T04:58:43;3.20;;;3.00;;
6667;SDS011;3370;47.712;9.082;2022-11-20T05:01:10;3.77;;;3.40;;
6667;SDS011;3370;47.712;9.082;2022-11-20T05:03:42;2.60;;;2.40;;
6667;SDS011;3370;47.712;9.082;2022-11-20T05:06:10;3.50;;;3.30;;
6667;SDS011;3370;47.712;9.082;2022-11-20T05:08:38;3.10;;;2.90;;
6667;SDS011;3370;47.712;9.082;2022-11-20T05:11:09;4.20;;;3.10;;
6667;SDS011;3370;47.712;9.082;2022-11-20T05:13:38;3.30;;;3.00;;
6667;SDS011;3370;47.712;9.082;2022-11-20T05:16:08;4.57;;;4.07;;
6667;SDS011;3370;47.712;9.082;2022-11-20T05:18:37;3.40;;;3.10;;
6667;SDS011;3370;47.712;9.082;2022-11-20T05:21:04;7.53;;;4.00;;
6667;SDS011;3370;47.712;9.082;2022-11-20T05:23:31;3.40;;;3.20;;
6667;SDS011;3370;47.712;9.082;2022-11-20T05:25:58;3.70;;;3.50;;
6667;SDS011;3370;47.712;9.082;2022-11-20T05:28:25;4.10;;;3.40;;
6667;SDS011;3370;47.712;9.082;2022-11-20T05:30:53;5.10;;;3.67;;
6667;SDS011;3370;47.712;9.082;2022-11-20T05:33:19;4.20;;;3.67;;
6667;SDS011;3370;47.712;9.082;2022-11-20T05:35:46;4.80;;;3.20;;
6667;SDS011;3370;47.712;9.082;2022-11-20T05:38:13;3.97;;;3.60;;
6667;SDS011;3370;47.712;9.082;2022-11-20T05:40:39;5.00;;;3.27;;
6667;SDS011;3370;47.712;9.082;2022-11-20T05:43:05;4.10;;;3.60;;
6667;SDS011;3370;47.712;9.082;2022-11-20T05:45:30;5.20;;;3.53;;
6667;SDS011;3370;47.712;9.082;2022-11-20T05:47:59;3.37;;;3.17;;
6667;SDS011;3370;47.712;9.082;2022-11-20T05:50:26;3.83;;;3.60;;
6667;SDS011;3370;47.712;9.082;2022-11-20T05:52:53;4.40;;;3.70;;
6667;SDS011;3370;47.712;9.082;2022-11-20T05:55:18;3.13;;;2.93;;
6667;SDS011;3370;47.712;9.082;2022-11-20T05:57:44;5.83;;;3.80;;
6667;SDS011;3370;47.712;9.082;2022-11-20T06:00:10;4.13;;;3.43;;
6667;SDS011;3370;47.712;9.082;2022-11-20T06:02:37;7.67;;;6.47;;
6667;SDS011;3370;47.712;9.082;2022-11-20T06:05:03;6.43;;;4.60;;
6667;SDS011;3370;47.712;9.082;2022-11-20T06:07:29;6.40;;;3.60;;
6667;SDS011;3370;47.712;9.082;2022-11-20T06:09:55;4.37;;;3.97;;
6667;SDS011;3370;47.712;9.082;2022-11-20T06:12:21;4.60;;;3.90;;
6667;SDS011;3370;47.712;9.082;2022-11-20T06:14:46;3.37;;;3.10;;
6667;SDS011;3370;47.712;9.082;2022-11-20T06:17:13;7.50;;;4.00;;
6667;SDS011;3370;47.712;9.082;2022-11-20T06:19:38;3.83;;;3.47;;
6667;SDS011;3370;47.712;9.082;2022-11-20T06:22:04;6.27;;;4.03;;
6667;SDS011;3370;47.712;9.082;2022-11-20T06:24:30;4.17;;;2.20;;
6667;SDS011;3370;47.712;9.082;2022-11-20T06:26:56;3.63;;;2.73;;
6667;SDS011;3370;47.712;9.082;2022-11-20T06:29:22;3.73;;;3.43;;
6667;SDS011;3370;47.712;9.082;2022-11-20T06:31:48;4.30;;;3.00;;
6667;SDS011;3370;47.712;9.082;2022-11-20T06:34:14;2.83;;;2.73;;
6667;SDS011;3370;47.712;9.082;2022-11-20T06:36:39;10.67;;;3.03;;
6667;SDS011;3370;47.712;9.082;2022-11-20T06:39:05;3.17;;;2.97;;
6667;SDS011;3370;47.712;9.082;2022-11-20T06:41:31;5.67;;;2.73;;
6667;SDS011;3370;47.712;9.082;2022-11-20T06:43:57;2.60;;;2.40;;
6667;SDS011;3370;47.712;9.082;2022-11-20T06:46:23;2.90;;;2.70;;
6667;SDS011;3370;47.712;9.082;2022-11-20T06:48:49;4.67;;;2.70;;
6667;SDS011;3370;47.712;9.082;2022-11-20T06:51:15;2.87;;;2.70;;
6667;SDS011;3370;47.712;9.082;2022-11-20T06:53:41;3.33;;;2.20;;
6667;SDS011;3370;47.712;9.082;2022-11-20T06:56:07;2.33;;;2.23;;
6667;SDS011;3370;47.712;9.082;2022-11-20T06:58:34;5.10;;;2.43;;
6667;SDS011;3370;47.712;9.082;2022-11-20T07:01:02;3.40;;;3.10;;
6667;SDS011;3370;47.712;9.082;2022-11-20T07:03:34;2.90;;;2.70;;
6667;SDS011;3370;47.712;9.082;2022-11-20T07:06:00;2.20;;;2.10;;
6667;SDS011;3370;47.712;9.082;2022-11-20T07:08:27;3.10;;;1.97;;
6667;SDS011;3370;47.712;9.082;2022-11-20T07:10:56;5.03;;;2.37;;
6667;SDS011;3370;47.712;9.082;2022-11-20T07:13:27;5.03;;;2.47;;
6667;SDS011;3370;47.712;9.082;2022-11-20T07:15:54;2.73;;;2.50;;
6667;SDS011;3370;47.712;9.082;2022-11-20T07:18:23;2.60;;;2.10;;
6667;SDS011;3370;47.712;9.082;2022-11-20T07:20:49;2.87;;;2.10;;
6667;SDS011;3370;47.712;9.082;2022-11-20T07:23:15;2.37;;;2.17;;
6667;SDS011;3370;47.712;9.082;2022-11-20T07:25:41;5.40;;;2.90;;
6667;SDS011;3370;47.712;9.082;2022-11-20T07:28:07;3.80;;;2.87;;
6667;SDS011;3370;47.712;9.082;2022-11-20T07:30:33;2.10;;;2.00;;
6667;SDS011;3370;47.712;9.082;2022-11-20T07:32:59;2.10;;;2.00;;
6667;SDS011;3370;47.712;9.082;2022-11-20T07:35:25;2.07;;;2.00;;
6667;SDS011;3370;47.712;9.082;2022-11-20T07:37:50;3.23;;;2.07;;
6667;SDS011;3370;47.712;9.082;2022-11-20T07:40:17;1.83;;;1.73;;
6667;SDS011;3370;47.712;9.082;2022-11-20T07:42:52;2.53;;;2.33;;
6667;SDS011;3370;47.712;9.082;2022-11-20T07:45:21;2.47;;;2.27;;
6667;SDS011;3370;47.712;9.082;2022-11-20T07:47:49;2.03;;;1.97;;
6667;SDS011;3370;47.712;9.082;2022-11-20T07:50:16;5.13;;;1.90;;
6667;SDS011;3370;47.712;9.082;2022-11-20T07:52:42;3.10;;;2.90;;
6667;SDS011;3370;47.712;9.082;2022-11-20T07:55:08;4.27;;;2.70;;
6667;SDS011;3370;47.712;9.082;2022-11-20T07:57:35;3.70;;;2.10;;
6667;SDS011;3370;47.712;9.082;2022-11-20T08:00:01;2.50;;;2.17;;
6667;SDS011;3370;47.712;9.082;2022-11-20T08:02:29;2.63;;;2.40;;
6667;SDS011;3370;47.712;9.082;2022-11-20T08:04:55;2.40;;;2.30;;
6667;SDS011;3370;47.712;9.082;2022-11-20T08:07:20;2.13;;;2.03;;
6667;SDS011;3370;47.712;9.082;2022-11-20T08:09:46;2.60;;;2.40;;
6667;SDS011;3370;47.712;9.082;2022-11-20T08:12:19;2.50;;;2.13;;
6667;SDS011;3370;47.712;9.082;2022-11-20T08:15:12;2.27;;;2.17;;
6667;SDS011;3370;47.712;9.082;2022-11-20T08:17:37;1.90;;;1.80;;
6667;SDS011;3370;47.712;9.082;2022-11-20T08:20:03;2.13;;;1.93;;
6667;SDS011;3370;47.712;9.082;2022-11-20T08:22:29;2.73;;;2.60;;
6667;SDS011;3370;47.712;9.082;2022-11-20T08:24:55;2.10;;;2.00;;
6667;SDS011;3370;47.712;9.082;2022-11-20T08:27:21;2.37;;;2.27;;
6667;SDS011;3370;47.712;9.082;2022-11-20T08:29:47;2.60;;;2.10;;
6667;SDS011;3370;47.712;9.082;2022-11-20T08:32:13;4.70;;;2.40;;
6667;SDS011;3370;47.712;9.082;2022-11-20T08:34:39;2.30;;;2.10;;
6667;SDS011;3370;47.712;9.082;2022-11-20T08:37:04;4.00;;;2.00;;
6667;SDS011;3370;47.712;9.082;2022-11-20T08:39:30;2.33;;;2.13;;
6667;SDS011;3370;47.712;9.082;2022-11-20T08:41:56;2.30;;;2.13;;
6667;SDS011;3370;47.712;9.082;2022-11-20T08:44:22;3.03;;;2.63;;
6667;SDS011;3370;47.712;9.082;2022-11-20T08:46:49;3.13;;;2.90;;
6667;SDS011;3370;47.712;9.082;2022-11-20T08:49:15;5.43;;;2.53;;
6667;SDS011;3370;47.712;9.082;2022-11-20T08:51:41;2.73;;;2.30;;
6667;SDS011;3370;47.712;9.082;2022-11-20T08:54:07;5.43;;;2.53;;
6667;SDS011;3370;47.712;9.082;2022-11-20T08:56:33;2.50;;;2.30;;
6667;SDS011;3370;47.712;9.082;2022-11-20T08:58:59;2.40;;;2.20;;
6667;SDS011;3370;47.712;9.082;2022-11-20T09:01:26;4.30;;;2.67;;
6667;SDS011;3370;47.712;9.082;2022-11-20T09:03:54;2.90;;;2.60;;
6667;SDS011;3370;47.712;9.082;2022-11-20T09:06:24;2.80;;;2.60;;
6667;SDS011;3370;47.712;9.082;2022-11-20T09:08:52;3.10;;;2.70;;
6667;SDS011;3370;47.712;9.082;2022-11-20T09:11:18;4.37;;;2.07;;
6667;SDS011;3370;47.712;9.082;2022-11-20T09:13:44;2.13;;;2.00;;
6667;SDS011;3370;47.712;9.082;2022-11-20T09:16:10;2.30;;;2.20;;
6667;SDS011;3370;47.712;9.082;2022-11-20T09:18:36;3.00;;;2.30;;
6667;SDS011;3370;47.712;9.082;2022-11-20T09:21:06;5.20;;;2.90;;
6667;SDS011;3370;47.712;9.082;2022-11-20T09:23:36;4.43;;;2.70;;
6667;SDS011;3370;47.712;9.082;2022-11-20T09:26:06;3.97;;;2.20;;
6667;SDS011;3370;47.712;9.082;2022-11-20T09:28:37;2.17;;;2.07;;
6667;SDS011;3370;47.712;9.082;2022-11-20T09:31:07;2.37;;;2.23;;
6667;SDS011;3370;47.712;9.082;2022-11-20T09:33:35;3.43;;;2.60;;
6667;SDS011;3370;47.712;9.082;2022-11-20T09:36:01;4.40;;;2.03;;
6667;SDS011;3370;47.712;9.082;2022-11-20T09:38:27;2.20;;;2.00;;
6667;SDS011;3370;47.712;9.082;2022-11-20T09:41:05;4.40;;;2.90;;
6667;SDS011;3370;47.712;9.082;2022-11-20T09:46:53;4.10;;;2.10;;
6667;SDS011;3370;47.712;9.082;2022-11-20T09:56:03;2.30;;;2.20;;
6667;SDS011;3370;47.712;9.082;2022-11-20T09:58:42;24.90;;;8.30;;
6667;SDS011;3370;47.712;9.082;2022-11-20T10:01:17;2.13;;;2.03;;
6667;SDS011;3370;47.712;9.082;2022-11-20T10:03:51;2.13;;;2.03;;
6667;SDS011;3370;47.712;9.082;2022-11-20T10:09:52;2.83;;;1.90;;
6667;SDS011;3370;47.712;9.082;2022-11-20T10:18:45;2.93;;;2.10;;
6667;SDS011;3370;47.712;9.082;2022-11-20T10:21:41;2.40;;;2.20;;
6667;SDS011;3370;47.712;9.082;2022-11-20T10:24:53;1.80;;;1.70;;
6667;SDS011;3370;47.712;9.082;2022-11-20T10:31:00;1.97;;;1.80;;
6667;SDS011;3370;47.712;9.082;2022-11-20T10:33:34;1.90;;;1.80;;
6667;SDS011;3370;47.712;9.082;2022-11-20T10:36:19;4.43;;;2.10;;
6667;SDS011;3370;47.712;9.082;2022-11-20T10:38:54;3.27;;;2.47;;
6667;SDS011;3370;47.712;9.082;2022-11-20T10:41:30;1.80;;;1.73;;
6667;SDS011;3370;47.712;9.082;2022-11-20T10:44:04;2.00;;;1.80;;
6667;SDS011;3370;47.712;9.082;2022-11-20T10:46:45;2.17;;;2.03;;
6667;SDS011;3370;47.712;9.082;2022-11-20T10:49:14;1.90;;;1.80;;
6667;SDS011;3370;47.712;9.082;2022-11-20T10:54:44;1.60;;;1.50;;
6667;SDS011;3370;47.712;9.082;2022-11-20T11:01:15;2.43;;;2.10;;
6667;SDS011;3370;47.712;9.082;2022-11-20T11:03:43;3.97;;;2.50;;
6667;SDS011;3370;47.712;9.082;2022-11-20T11:09:09;2.27;;;2.17;;
6667;SDS011;3370;47.712;9.082;2022-11-20T11:11:44;1.63;;;1.63;;
6667;SDS011;3370;47.712;9.082;2022-11-20T11:14:13;4.33;;;2.03;;
6667;SDS011;3370;47.712;9.082;2022-11-20T11:16:50;2.67;;;1.83;;
6667;SDS011;3370;47.712;9.082;2022-11-20T11:19:22;2.00;;;1.83;;
6667;SDS011;3370;47.712;9.082;2022-11-20T11:21:53;3.50;;;2.20;;
6667;SDS011;3370;47.712;9.082;2022-11-20T11:27:04;1.63;;;1.53;;
6667;SDS011;3370;47.712;9.082;2022-11-20T11:29:41;2.33;;;1.90;;
6667;SDS011;3370;47.712;9.082;2022-11-20T11:32:08;1.73;;;1.70;;
6667;SDS011;3370;47.712;9.082;2022-11-20T11:34:39;2.20;;;1.73;;
6667;SDS011;3370;47.712;9.082;2022-11-20T11:37:09;2.40;;;2.17;;
6667;SDS011;3370;47.712;9.082;2022-11-20T11:39:51;1.70;;;1.60;;
6667;SDS011;3370;47.712;9.082;2022-11-20T11:42:18;2.40;;;1.80;;
6667;SDS011;3370;47.712;9.082;2022-11-20T11:44:45;2.00;;;1.90;;
6667;SDS011;3370;47.712;9.082;2022-11-20T11:52:40;1.90;;;1.80;;
6667;SDS011;3370;47.712;9.082;2022-11-20T11:55:44;1.90;;;1.83;;
6667;SDS011;3370;47.712;9.082;2022-11-20T11:58:44;2.00;;;1.90;;
6667;SDS011;3370;47.712;9.082;2022-11-20T12:07:13;1.87;;;1.77;;
6667;SDS011;3370;47.712;9.082;2022-11-20T12:09:51;1.73;;;1.63;;
6667;SDS011;3370;47.712;9.082;2022-11-20T12:12:20;2.93;;;2.73;;
6667;SDS011;3370;47.712;9.082;2022-11-20T12:14:55;4.47;;;2.60;;
6667;SDS011;3370;47.712;9.082;2022-11-20T12:17:23;2.93;;;1.77;;
6667;SDS011;3370;47.712;9.082;2022-11-20T12:19:49;2.00;;;1.90;;
6667;SDS011;3370;47.712;9.082;2022-11-20T12:22:33;2.00;;;1.87;;
6667;SDS011;3370;47.712;9.082;2022-11-20T12:25:27;1.73;;;1.63;;
6667;SDS011;3370;47.712;9.082;2022-11-20T12:34:37;2.40;;;2.20;;
6667;SDS011;3370;47.712;9.082;2022-11-20T12:40:15;6.23;;;3.20;;
6667;SDS011;3370;47.712;9.082;2022-11-20T12:43:23;2.97;;;2.77;;
6667;SDS011;3370;47.712;9.082;2022-11-20T12:55:23;1.40;;;1.40;;
6667;SDS011;3370;47.712;9.082;2022-11-20T12:58:13;4.67;;;1.70;;
6667;SDS011;3370;47.712;9.082;2022-11-20T13:01:12;2.27;;;1.80;;
6667;SDS011;3370;47.712;9.082;2022-11-20T13:07:12;3.33;;;1.70;;
6667;SDS011;3370;47.712;9.082;2022-11-20T13:09:46;2.93;;;1.60;;
6667;SDS011;3370;47.712;9.082;2022-11-20T13:15:32;2.10;;;2.00;;
6667;SDS011;3370;47.712;9.082;2022-11-20T13:18:04;4.73;;;1.23;;
6667;SDS011;3370;47.712;9.082;2022-11-20T13:20:41;2.20;;;1.83;;
6667;SDS011;3370;47.712;9.082;2022-11-20T13:23:22;1.40;;;1.40;;
6667;SDS011;3370;47.712;9.082;2022-11-20T13:25:50;2.23;;;2.13;;
6667;SDS011;3370;47.712;9.082;2022-11-20T13:28:27;2.20;;;1.90;;
6667;SDS011;3370;47.712;9.082;2022-11-20T13:30:56;1.67;;;1.57;;
6667;SDS011;3370;47.712;9.082;2022-11-20T13:36:01;3.97;;;2.67;;
6667;SDS011;3370;47.712;9.082;2022-11-20T13:38:54;4.90;;;1.40;;
6667;SDS011;3370;47.712;9.082;2022-11-20T13:46:37;3.60;;;2.43;;
6667;SDS011;3370;47.712;9.082;2022-11-20T13:49:18;2.50;;;1.90;;
6667;SDS011;3370;47.712;9.082;2022-11-20T13:52:05;2.10;;;1.60;;
6667;SDS011;3370;47.712;9.082;2022-11-20T14:00:23;2.60;;;1.13;;
6667;SDS011;3370;47.712;9.082;2022-11-20T14:05:45;2.73;;;2.03;;
6667;SDS011;3370;47.712;9.082;2022-11-20T14:08:21;1.20;;;1.10;;
6667;SDS011;3370;47.712;9.082;2022-11-20T14:11:11;2.13;;;1.60;;
6667;SDS011;3370;47.712;9.082;2022-11-20T14:14:18;3.27;;;2.00;;
6667;SDS011;3370;47.712;9.082;2022-11-20T14:16:44;4.10;;;1.57;;
6667;SDS011;3370;47.712;9.082;2022-11-20T14:21:49;1.27;;;1.10;;
6667;SDS011;3370;47.712;9.082;2022-11-20T14:24:37;5.57;;;1.40;;
6667;SDS011;3370;47.712;9.082;2022-11-20T14:27:03;1.53;;;1.43;;
6667;SDS011;3370;47.712;9.082;2022-11-20T14:29:30;2.73;;;2.20;;
6667;SDS011;3370;47.712;9.082;2022-11-20T14:32:00;2.33;;;1.20;;
6667;SDS011;3370;47.712;9.082;2022-11-20T14:34:28;2.10;;;1.53;;
6667;SDS011;3370;47.712;9.082;2022-11-20T14:37:03;1.30;;;1.30;;
6667;SDS011;3370;47.712;9.082;2022-11-20T14:39:36;2.47;;;1.40;;
6667;SDS011;3370;47.712;9.082;2022-11-20T14:42:23;1.80;;;1.20;;
6667;SDS011;3370;47.712;9.082;2022-11-20T14:44:56;1.60;;;1.50;;
6667;SDS011;3370;47.712;9.082;2022-11-20T14:47:25;1.93;;;1.33;;
6667;SDS011;3370;47.712;9.082;2022-11-20T14:49:55;1.70;;;1.60;;
6667;SDS011;3370;47.712;9.082;2022-11-20T14:52:24;1.63;;;1.53;;
6667;SDS011;3370;47.712;9.082;2022-11-20T14:54:53;1.67;;;1.47;;
6667;SDS011;3370;47.712;9.082;2022-11-20T14:57:29;1.70;;;1.57;;
6667;SDS011;3370;47.712;9.082;2022-11-20T15:02:47;3.03;;;1.47;;
6667;SDS011;3370;47.712;9.082;2022-11-20T15:05:15;1.50;;;1.40;;
6667;SDS011;3370;47.712;9.082;2022-11-20T15:07:48;1.70;;;1.60;;
6667;SDS011;3370;47.712;9.082;2022-11-20T15:10:33;3.50;;;1.73;;
6667;SDS011;3370;47.712;9.082;2022-11-20T15:13:00;3.80;;;1.60;;
6667;SDS011;3370;47.712;9.082;2022-11-20T15:18:19;1.57;;;1.40;;
6667;SDS011;3370;47.712;9.082;2022-11-20T15:20:53;2.53;;;1.73;;
6667;SDS011;3370;47.712;9.082;2022-11-20T15:23:21;2.57;;;1.80;;
6667;SDS011;3370;47.712;9.082;2022-11-20T15:25:48;2.97;;;1.40;;
6667;SDS011;3370;47.712;9.082;2022-11-20T15:28:21;5.23;;;1.77;;
6667;SDS011;3370;47.712;9.082;2022-11-20T15:31:00;5.77;;;2.17;;
6667;SDS011;3370;47.712;9.082;2022-11-20T15:33:27;2.10;;;1.53;;
6667;SDS011;3370;47.712;9.082;2022-11-20T15:35:53;1.57;;;1.40;;
6667;SDS011;3370;47.712;9.082;2022-11-20T15:38:19;2.00;;;1.80;;
6667;SDS011;3370;47.712;9.082;2022-11-20T15:40:45;2.00;;;1.73;;
6667;SDS011;3370;47.712;9.082;2022-11-20T15:43:11;2.07;;;1.87;;
6667;SDS011;3370;47.712;9.082;2022-11-20T15:48:17;1.70;;;1.60;;
6667;SDS011;3370;47.712;9.082;2022-11-20T15:50:59;1.50;;;1.40;;
6667;SDS011;3370;47.712;9.082;2022-11-20T15:53:35;1.90;;;1.70;;
6667;SDS011;3370;47.712;9.082;2022-11-20T15:56:06;2.30;;;2.10;;
6667;SDS011;3370;47.712;9.082;2022-11-20T15:58:36;2.30;;;2.10;;
6667;SDS011;3370;47.712;9.082;2022-11-20T16:01:02;5.17;;;2.10;;
6667;SDS011;3370;47.712;9.082;2022-11-20T16:03:28;2.23;;;1.93;;
6667;SDS011;3370;47.712;9.082;2022-11-20T16:05:55;1.90;;;1.63;;
6667;SDS011;3370;47.712;9.082;2022-11-20T16:08:21;5.33;;;1.70;;
6667;SDS011;3370;47.712;9.082;2022-11-20T16:10:47;1.97;;;1.77;;
6667;SDS011;3370;47.712;9.082;2022-11-20T16:13:13;2.40;;;1.70;;
6667;SDS011;3370;47.712;9.082;2022-11-20T16:16:02;2.20;;;2.00;;
6667;SDS011;3370;47.712;9.082;2022-11-20T16:18:33;2.40;;;2.03;;
6667;SDS011;3370;47.712;9.082;2022-11-20T16:20:58;3.00;;;1.70;;
6667;SDS011;3370;47.712;9.082;2022-11-20T16:23:24;1.60;;;1.50;;
6667;SDS011;3370;47.712;9.082;2022-11-20T16:25:50;2.83;;;1.83;;
6667;SDS011;3370;47.712;9.082;2022-11-20T16:28:16;1.70;;;1.60;;
6667;SDS011;3370;47.712;9.082;2022-11-20T16:30:43;2.40;;;1.67;;
6667;SDS011;3370;47.712;9.082;2022-11-20T16:33:14;2.87;;;1.90;;
6667;SDS011;3370;47.712;9.082;2022-11-20T16:35:44;2.30;;;1.70;;
6667;SDS011;3370;47.712;9.082;2022-11-20T16:38:10;2.17;;;1.83;;
6667;SDS011;3370;47.712;9.082;2022-11-20T16:40:36;3.43;;;1.57;;
6667;SDS011;3370;47.712;9.082;2022-11-20T16:43:09;2.13;;;1.80;;
6667;SDS011;3370;47.712;9.082;2022-11-20T16:45:41;1.70;;;1.60;;
6667;SDS011;3370;47.712;9.082;2022-11-20T16:48:13;4.47;;;2.53;;
6667;SDS011;3370;47.712;9.082;2022-11-20T16:50:44;2.10;;;2.00;;
6667;SDS011;3370;47.712;9.082;2022-11-20T16:53:13;1.80;;;1.70;;
6667;SDS011;3370;47.712;9.082;2022-11-20T16:55:39;3.20;;;2.20;;
6667;SDS011;3370;47.712;9.082;2022-11-20T16:58:04;5.47;;;2.33;;
6667;SDS011;3370;47.712;9.082;2022-11-20T17:00:30;6.07;;;1.83;;
6667;SDS011;3370;47.712;9.082;2022-11-20T17:02:56;1.80;;;1.70;;
6667;SDS011;3370;47.712;9.082;2022-11-20T17:05:22;4.10;;;2.40;;
6667;SDS011;3370;47.712;9.082;2022-11-20T17:07:48;2.10;;;2.00;;
6667;SDS011;3370;47.712;9.082;2022-11-20T17:10:14;3.37;;;2.60;;
6667;SDS011;3370;47.712;9.082;2022-11-20T17:12:40;2.13;;;1.93;;
6667;SDS011;3370;47.712;9.082;2022-11-20T17:15:06;3.37;;;1.90;;
6667;SDS011;3370;47.712;9.082;2022-11-20T17:17:32;2.37;;;2.00;;
6667;SDS011;3370;47.712;9.082;2022-11-20T17:19:58;3.20;;;2.10;;
6667;SDS011;3370;47.712;9.082;2022-11-20T17:22:23;3.60;;;2.13;;
6667;SDS011;3370;47.712;9.082;2022-11-20T17:24:49;4.73;;;2.00;;